WIF1A ENOV-ENBR

Flight info

Callsign WIF1A
Flight time 0h 15m
Altitude 24000
Route EVNAN DCT LUNUR
Aircraft DH8B/M-SDFGR/S

Departure

Time 2026-05-01 10:38
Airport Ørsta-Volda Airport, Hovden (ENOV)

Arrival

Time 2026-05-01 10:53
Airport Bergen Airport, Flesland (ENBR)
Time Latitude Longitude Altitude Speed Heading
2026-05-01 10:32 62.18070 6.07949 246 ft 0 kts 60°
2026-05-01 10:37 62.18095 6.07988 246 ft 9 kts 343°
2026-05-01 10:37 62.18128 6.07873 245 ft 0 kts 241°
2026-05-01 10:37 62.18041 6.07549 246 ft 78 kts 240°
2026-05-01 10:38 62.17652 6.06096 406 ft 136 kts 240°
2026-05-01 10:38 62.17141 6.04212 1039 ft 151 kts 233°
2026-05-01 10:38 62.16712 6.02063 1702 ft 170 kts 264°
2026-05-01 10:38 62.17098 5.99605 2332 ft 184 kts 308°
2026-05-01 10:39 62.18048 5.97716 3052 ft 187 kts 307°
2026-05-01 10:39 62.18808 5.95488 3760 ft 189 kts 294°
2026-05-01 10:39 62.19605 5.93136 4499 ft 197 kts 300°
2026-05-01 10:39 62.20463 5.90879 5231 ft 195 kts 291°
2026-05-01 10:40 62.20746 5.88267 5982 ft 171 kts 251°
2026-05-01 10:40 62.20219 5.86139 6770 ft 160 kts 230°
2026-05-01 10:40 62.19437 5.84502 7505 ft 157 kts 216°
2026-05-01 10:40 62.18419 5.83597 8264 ft 164 kts 200°
2026-05-01 10:41 62.17257 5.83352 9026 ft 169 kts 197°
2026-05-01 10:41 62.16101 5.82888 9811 ft 171 kts 204°
2026-05-01 10:41 62.09968 5.80397 12481 ft 195 kts 202°
2026-05-01 10:42 62.06991 5.78623 13933 ft 205 kts 208°
2026-05-01 10:42 62.04789 5.78100 14718 ft 218 kts 194°
2026-05-01 10:42 61.98878 5.75704 16833 ft 218 kts 202°
2026-05-01 10:42 61.92759 5.73129 18990 ft 226 kts 201°
2026-05-01 10:43 61.86355 5.70481 20181 ft 255 kts 200°
2026-05-01 10:43 61.78920 5.67432 20207 ft 285 kts 200°
2026-05-01 10:43 61.71115 5.64196 20189 ft 286 kts 199°
2026-05-01 10:43 61.63334 5.61076 20196 ft 290 kts 199°
2026-05-01 10:44 61.55411 5.57869 20192 ft 289 kts 200°
2026-05-01 10:44 61.47481 5.54652 20192 ft 292 kts 199°
2026-05-01 10:44 61.39550 5.51497 20198 ft 289 kts 199°
2026-05-01 10:44 61.31628 5.48343 20174 ft 289 kts 199°
2026-05-01 10:45 61.23719 5.45189 20206 ft 289 kts 199°
2026-05-01 10:45 61.15767 5.42053 20194 ft 293 kts 199°
2026-05-01 10:45 61.09794 5.39722 20208 ft 291 kts 199°
2026-05-01 10:45 61.07805 5.38938 20189 ft 292 kts 199°
2026-05-01 10:46 61.01838 5.36600 19435 ft 283 kts 199°
2026-05-01 10:46 60.94094 5.33618 18254 ft 284 kts 199°
2026-05-01 10:46 60.86540 5.30647 16655 ft 255 kts 200°
2026-05-01 10:46 60.82467 5.29091 15646 ft 246 kts 199°
2026-05-01 10:47 60.80778 5.28458 15132 ft 247 kts 198°
2026-05-01 10:47 60.76556 5.26829 13619 ft 194 kts 200°
2026-05-01 10:47 60.71788 5.24997 11120 ft 160 kts 200°
2026-05-01 10:47 60.67559 5.23429 8719 ft 149 kts 201°
2026-05-01 10:48 60.63798 5.21947 7020 ft 140 kts 198°
2026-05-01 10:48 60.59882 5.20443 6250 ft 174 kts 198°
2026-05-01 10:48 60.55171 5.18669 5495 ft 174 kts 195°
2026-05-01 10:48 60.53421 5.18007 5319 ft 172 kts 194°
2026-05-01 10:49 60.52233 5.17561 5121 ft 175 kts 194°
2026-05-01 10:49 60.51023 5.17094 4839 ft 178 kts 193°
2026-05-01 10:49 60.47980 5.16039 3990 ft 176 kts 188°
2026-05-01 10:49 60.45452 5.16406 3270 ft 179 kts 173°
2026-05-01 10:50 60.42836 5.17282 2720 ft 158 kts 172°
2026-05-01 10:50 60.41760 5.17616 2478 ft 153 kts 174°
2026-05-01 10:50 60.40736 5.17960 2285 ft 146 kts 173°
2026-05-01 10:50 60.39725 5.18284 2066 ft 147 kts 172°
2026-05-01 10:51 60.38735 5.18656 1879 ft 144 kts 172°
2026-05-01 10:51 60.36408 5.19441 1413 ft 141 kts 173°
2026-05-01 10:51 60.34562 5.20057 1049 ft 136 kts 171°
2026-05-01 10:51 60.33566 5.20379 854 ft 153 kts 170°
2026-05-01 10:52 60.32495 5.20750 628 ft 160 kts 171°
2026-05-01 10:52 60.31452 5.21102 427 ft 137 kts 170°
2026-05-01 10:52 60.30603 5.21409 237 ft 118 kts 172°
2026-05-01 10:52 60.29840 5.21649 146 ft 100 kts 171°
2026-05-01 10:53 60.29251 5.21844 154 ft 73 kts 171°
2026-05-01 10:53 60.28953 5.21944 160 ft 17 kts 170°
2026-05-01 10:53 60.28918 5.22126 162 ft 16 kts 81°
2026-05-01 10:53 60.28923 5.22177 164 ft 0 kts 79°
2026-05-01 10:54 60.28926 5.22246 166 ft 9 kts 106°
2026-05-01 10:54 60.28863 5.22298 167 ft 12 kts 168°
2026-05-01 10:55 60.28770 5.22330 166 ft 15 kts 173°
2026-05-01 10:55 60.28693 5.22440 167 ft 16 kts 65°
2026-05-01 10:55 60.28723 5.22666 170 ft 16 kts 82°
2026-05-01 10:55 60.28736 5.22845 171 ft 7 kts 81°
2026-05-01 10:56 60.28739 5.22883 172 ft 0 kts 81°
2026-05-01 10:56 60.28740 5.22890 172 ft 0 kts 81°